Details From MGGT - La Aurora
To KGLS - Scholes Intl At Galveston
Flight Number -
Tags Decoded
Created
Modified
Stats Distance 836 nm / 1,549 km
Max Altitude 0 ft / 0 m
Waypoints 5
Social Downloads 1
Likes 0
Share VATSIM

Download

Looking for another format? Having issues loading an existing format? Contact us
Advertisement - Login to hide

Notes

Decoded

Route

RAB NALDA CPE MARTE MUSYL

ID Type Via Altitude Latitude Longitude Leg Dist Tot Dist Heading (true) Name
O RAB VOR - 0 ft / 0 m 15.00864˚ -90.47033˚ - 0 nm - RABINAL VOR-DME
NALDA FIX - 0 ft / 0 m 17.74722˚ -90.09972˚ 165 nm 165 nm 7° / 7° -
CPE VOR - 0 ft / 0 m 19.83083˚ -90.50394˚ 127 nm 293 nm 350° / 350° CAMPECHE VOR-DME
MARTE FIX - 0 ft / 0 m 24.50000˚ -91.78472˚ 289 nm 582 nm 346° / 346° -
O MUSYL FIX - 0 ft / 0 m 28.17044˚ -94.12919˚ 253 nm 836 nm 331° / 330° -

Altitude Profile

Advertisement - Login to hide

Weather


0- 5 10 15 20 25 30 35+ Temperature / ° C

Clouds and Precipitation
Forecast for 2017-12-14 00:00 UTC. Updated 2 hours ago

Ground ~20,000 ft ~40,000 ft Winds

MGGT

Details ICAO MGGT (GUA)
Name La Aurora
Region Guatemala
Timezone America/Guatemala (UTC-6.0)
Stats Elevation 4,952 ft / 1,509 m (AMSL)
Location 14.583272° -90.527473°
Runways 1
Magnetic Variation 1.071° E

METAR

MGGT 132200Z 03012KT CAVOK 19/10 Q1024 A3024

Decode

TAF

TAF TAF MGGT 131700Z 1318/1418 36012KT 9999 FEW018 TX21/1320Z TN11/1412Z PROB40 TEMPO 1318/1403 36016KT SCT020 BECMG 1401/1403 36008KT SCT016 BECMG 1415/1417 FEW020

Decode

Departure Runways

ID Width Length Bearing (true) Bearing (mag) Surface Threshold Offset Overrun Length
01 196 ft / 60 m 9,841 ft / 3,000 m 17.29° 16.22° Asphalt 0 ft / 0 m 0 ft / 0 m
19 196 ft / 60 m 9,841 ft / 3,000 m 197.29° 196.22° Asphalt 722 ft / 220 m 0 ft / 0 m

KGLS

Details ICAO KGLS (GLS)
Name Scholes INTL at Galveston
Region United States
Timezone America/Chicago (UTC-6.0)
Stats Elevation 6 ft / 2 m (AMSL)
Location 29.265321° -94.860412°
Runways 2
Magnetic Variation 2.203° E

METAR

KGLS 132152Z 21006KT 10SM CLR 16/03 A3006 RMK AO2 SLP179 T01610028

Decode

TAF

TAF KGLS 131728Z 1318/1418 20008KT P6SM BKN300 FM140600 24006KT P6SM BKN300 FM141400 VRB05KT P6SM FEW040 OVC250

Decode

Destination Runways

ID Width Length Bearing (true) Bearing (mag) Surface Threshold Offset Overrun Length
13 151 ft / 46 m 6,008 ft / 1,831 m 140.26° 138.06° Asphalt 0 ft / 0 m 0 ft / 0 m
17 151 ft / 46 m 6,023 ft / 1,836 m 180.86° 178.66° Concrete 0 ft / 0 m 0 ft / 0 m
31 151 ft / 46 m 6,008 ft / 1,831 m 320.26° 318.06° Asphalt 0 ft / 0 m 0 ft / 0 m
35 151 ft / 46 m 6,023 ft / 1,836 m 0.86° 358.66° Concrete 0 ft / 0 m 0 ft / 0 m

Approach Navaids

Runway Type Ident Frequency Range Bearing (true) Bearing (mag) Slope Elevation
13 Localiser IGLS 111.70 MHz 18 nm / 33 km 140.26° 138.06° - 7 ft / 2 m (AMSL)
13 Glidescope IGLS 111.70 MHz 10 nm / 19 km 140.26° 138.06° 3.00° 5 ft / 2 m (AMSL)